Time;durP1;ratioP1;P1;durP2;ratioP2;P2;SDS_P1;SDS_P2;PMS_P1;PMS_P2;Temp;Humidity;BMP_temperature;BMP_pressure;BME280_temperature;BME280_humidity;BME280_pressure;Samples;Min_cycle;Max_cycle;Signal;HPM_P1;HPM_P2
2022/05/19 00:01:26;;;;;;;4.88;4.47;;;;;;;21.14;nan;100769.31;10377287;28;20076;-79
2022/05/19 00:06:29;;;;;;;4.90;3.58;;;;;;;21.09;nan;100769.06;10376869;28;20045;-82
2022/05/19 00:11:33;;;;;;;4.93;3.80;;;;;;;21.07;nan;100770.25;10403918;28;20053;-82
2022/05/19 00:16:38;;;;;;;6.20;4.13;;;;;;;20.96;nan;100768.78;10380736;28;20749;-82
2022/05/19 00:21:42;;;;;;;6.97;4.28;;;;;;;20.96;nan;100761.44;10379642;28;20049;-81
2022/05/19 00:26:45;;;;;;;5.90;3.90;;;;;;;20.99;nan;100762.94;10377985;28;20076;-81
2022/05/19 00:31:50;;;;;;;5.88;4.18;;;;;;;20.99;nan;100760.22;10376069;28;20049;-81
2022/05/19 00:36:57;;;;;;;8.38;4.50;;;;;;;21.00;nan;100765.47;10378179;28;20538;-83
2022/05/19 00:47:25;;;;;;;5.75;4.50;;;;;;;20.88;nan;100756.03;10379021;28;20517;-81
2022/05/19 00:52:32;;;;;;;5.38;4.85;;;;;;;20.74;nan;100749.50;10369356;28;20122;-82
2022/05/19 00:57:46;;;;;;;5.82;4.53;;;;;;;20.73;nan;100760.59;10378555;28;20061;-81
2022/05/19 01:02:53;;;;;;;5.72;4.82;;;;;;;20.72;nan;100753.44;10375544;28;20070;-83
2022/05/19 01:08:00;;;;;;;5.88;4.55;;;;;;;20.72;nan;100756.16;10368604;28;20086;-81
2022/05/19 01:13:03;;;;;;;4.70;3.97;;;;;;;20.76;nan;100760.22;10376175;28;20045;-81
2022/05/19 01:18:08;;;;;;;6.05;4.65;;;;;;;20.72;nan;100751.56;10374342;28;20759;-81
2022/05/19 01:23:21;;;;;;;5.43;4.40;;;;;;;20.72;nan;100746.09;10376940;28;20541;-82
2022/05/19 01:28:26;;;;;;;4.72;4.25;;;;;;;20.60;nan;100746.69;10376935;28;20657;-80
2022/05/19 01:33:29;;;;;;;8.15;4.93;;;;;;;20.49;nan;100743.38;10378587;28;20040;-80
2022/05/19 01:38:33;;;;;;;6.63;4.50;;;;;;;20.36;nan;100726.75;10377834;28;20049;-81
2022/05/19 01:44:05;;;;;;;6.57;4.80;;;;;;;20.29;nan;100731.19;10379978;28;20060;-80
2022/05/19 01:49:15;;;;;;;7.82;5.32;;;;;;;20.23;nan;100721.84;10384849;28;20045;-81
2022/05/19 01:54:24;;;;;;;10.57;5.28;;;;;;;20.15;nan;100721.88;10385312;28;20057;-82
2022/05/19 01:59:38;;;;;;;7.03;5.47;;;;;;;20.02;nan;100717.03;10384745;28;20407;-82
2022/05/19 02:04:50;;;;;;;6.45;5.00;;;;;;;19.95;nan;100713.31;10362268;28;20060;-81
2022/05/19 02:09:58;;;;;;;5.88;5.38;;;;;;;19.96;nan;100709.53;10382971;28;20415;-82
2022/05/19 02:15:07;;;;;;;6.22;5.68;;;;;;;19.92;nan;100700.03;10369985;28;20603;-82
2022/05/19 02:20:13;;;;;;;6.53;5.35;;;;;;;19.96;nan;100703.25;10400445;28;20134;-79
2022/05/19 02:25:21;;;;;;;7.03;5.80;;;;;;;19.90;nan;100710.25;10387325;28;20183;-82
2022/05/19 02:30:28;;;;;;;8.15;4.97;;;;;;;19.99;nan;100711.91;10384240;28;20069;-82
2022/05/19 02:35:31;;;;;;;6.63;5.00;;;;;;;19.94;nan;100708.00;10378231;28;20448;-80
2022/05/19 02:40:37;;;;;;;10.15;4.78;;;;;;;19.92;nan;100710.09;10382831;28;20099;-83
2022/05/19 02:45:41;;;;;;;6.30;4.50;;;;;;;19.90;nan;100702.06;10383389;28;20055;-82
2022/05/19 02:50:47;;;;;;;10.48;5.20;;;;;;;19.79;nan;100700.59;10382899;28;20098;-81
2022/05/19 02:55:50;;;;;;;7.43;5.22;;;;;;;19.74;nan;100694.81;10381404;28;20046;-83
2022/05/19 03:00:55;;;;;;;5.60;4.82;;;;;;;19.67;nan;100702.03;10383670;28;20104;-82
2022/05/19 03:05:57;;;;;;;6.32;5.32;;;;;;;19.60;nan;100696.41;10382894;28;20872;-83
2022/05/19 03:11:00;;;;;;;8.73;6.20;;;;;;;19.59;nan;100694.72;10382534;28;20077;-83
2022/05/19 03:16:08;;;;;;;7.93;5.38;;;;;;;19.57;nan;100702.22;10383555;28;20045;-82
2022/05/19 03:21:11;;;;;;;5.63;5.10;;;;;;;19.58;nan;100708.50;10382304;28;20049;-82
2022/05/19 03:26:14;;;;;;;10.55;5.72;;;;;;;19.60;nan;100709.19;10381506;28;20041;-83
2022/05/19 03:31:19;;;;;;;6.75;5.50;;;;;;;19.60;nan;100699.13;10388125;28;20053;-83
2022/05/19 03:36:22;;;;;;;5.57;4.90;;;;;;;19.60;nan;100698.28;10383617;28;20049;-82
2022/05/19 03:41:25;;;;;;;7.38;5.13;;;;;;;19.38;nan;100702.59;10383237;28;20055;-82
2022/05/19 03:46:29;;;;;;;6.05;5.45;;;;;;;19.35;nan;100697.50;10382576;28;20096;-82
2022/05/19 03:51:34;;;;;;;7.82;4.93;;;;;;;19.30;nan;100699.88;10381489;28;20052;-83
2022/05/19 03:56:37;;;;;;;6.10;5.03;;;;;;;19.21;nan;100704.50;10381609;28;20057;-83
2022/05/19 04:01:41;;;;;;;6.30;5.70;;;;;;;19.13;nan;100701.78;10381907;28;21524;-83
2022/05/19 04:06:44;;;;;;;8.77;5.93;;;;;;;19.12;nan;100703.66;10378119;28;20080;-83
2022/05/19 04:11:47;;;;;;;7.68;5.88;;;;;;;19.15;nan;100700.59;10380447;28;20059;-83
2022/05/19 04:16:54;;;;;;;6.47;5.72;;;;;;;19.21;nan;100704.50;10382670;28;20877;-82
2022/05/19 04:21:57;;;;;;;9.77;5.78;;;;;;;19.25;nan;100705.84;10382316;28;20447;-81
2022/05/19 04:27:02;;;;;;;7.85;5.63;;;;;;;19.26;nan;100718.44;10381280;28;20049;-81
2022/05/19 04:32:07;;;;;;;6.85;5.20;;;;;;;19.34;nan;100725.75;10405860;28;20137;-83
2022/05/19 04:37:10;;;;;;;9.52;5.60;;;;;;;19.39;nan;100726.06;10380073;28;20052;-82
2022/05/19 04:42:14;;;;;;;5.95;5.22;;;;;;;19.54;nan;100726.22;10379832;28;20052;-83
2022/05/19 04:47:18;;;;;;;8.00;6.20;;;;;;;19.66;nan;100731.16;10378857;28;20064;-83
2022/05/19 04:52:21;;;;;;;6.18;5.55;;;;;;;19.73;nan;100734.00;10379147;28;20076;-82
2022/05/19 04:57:24;;;;;;;7.90;4.00;;;;;;;19.99;nan;100739.16;10379943;28;20095;-82
2022/05/19 05:02:28;;;;;;;5.22;3.90;;;;;;;20.31;nan;100742.78;10379332;28;20433;-82
2022/05/19 05:07:31;;;;;;;6.80;4.38;;;;;;;20.53;nan;100741.97;10379630;28;21267;-82
2022/05/19 05:12:34;;;;;;;5.50;4.22;;;;;;;20.69;nan;100735.53;10380717;28;20053;-81
2022/05/19 05:17:39;;;;;;;5.40;4.70;;;;;;;20.79;nan;100743.50;10391147;28;20148;-81
2022/05/19 05:22:41;;;;;;;4.50;4.05;;;;;;;20.91;nan;100735.72;10413314;28;20072;-82
2022/05/19 05:27:44;;;;;;;4.70;4.30;;;;;;;21.01;nan;100742.63;10418164;28;20068;-78
2022/05/19 05:32:49;;;;;;;8.68;4.50;;;;;;;21.07;nan;100743.78;10386940;28;20049;-80
2022/05/19 05:37:52;;;;;;;6.43;4.20;;;;;;;21.16;nan;100736.38;10381764;28;20447;-81
2022/05/19 05:43:04;;;;;;;5.25;4.45;;;;;;;21.30;nan;100735.53;10383905;28;20045;-80
2022/05/19 05:48:09;;;;;;;5.25;4.45;;;;;;;21.50;nan;100745.91;10389672;28;21227;-79
2022/05/19 05:53:12;;;;;;;5.35;4.13;;;;;;;21.66;nan;100732.06;10397653;28;20101;-81
2022/05/19 05:58:15;;;;;;;9.73;4.38;;;;;;;21.87;nan;100729.44;10408448;28;20069;-80
2022/05/19 06:03:19;;;;;;;6.50;3.85;;;;;;;22.13;nan;100729.97;10417157;28;20041;-80
2022/05/19 06:08:22;;;;;;;4.60;4.20;;;;;;;22.26;nan;100730.13;10415724;28;20061;-81
2022/05/19 06:13:25;;;;;;;5.93;3.58;;;;;;;22.37;nan;100735.09;10419068;28;20057;-79
2022/05/19 06:18:30;;;;;;;5.60;4.05;;;;;;;22.62;nan;100727.38;10419006;28;20049;-80
2022/05/19 06:23:34;;;;;;;98.95;8.70;;;;;;;22.77;nan;100719.13;10417261;28;20084;-82
2022/05/19 06:28:37;;;;;;;7.10;3.42;;;;;;;22.84;nan;100719.16;10418254;28;20049;-81
2022/05/19 06:33:42;;;;;;;6.15;3.50;;;;;;;23.09;nan;100711.34;10417556;28;20076;-79
2022/05/19 06:38:44;;;;;;;7.05;3.42;;;;;;;23.33;nan;100712.84;10421901;28;20103;-78
2022/05/19 06:43:47;;;;;;;3.72;3.42;;;;;;;23.36;nan;100701.47;10399769;28;20109;-76
2022/05/19 06:48:52;;;;;;;4.60;3.20;;;;;;;23.53;nan;100700.13;10399023;28;20140;-76
2022/05/19 06:53:56;;;;;;;6.57;3.10;;;;;;;23.72;nan;100692.19;10404369;28;20473;-80
2022/05/19 06:58:59;;;;;;;3.90;2.97;;;;;;;23.62;nan;100690.66;10394085;28;21165;-78
2022/05/19 07:04:03;;;;;;;4.30;2.70;;;;;;;23.77;nan;100689.69;10417256;28;20758;-79
2022/05/19 07:09:06;;;;;;;4.28;3.30;;;;;;;23.61;nan;100694.47;10426635;28;20052;-81
2022/05/19 07:14:11;;;;;;;5.55;2.65;;;;;;;23.52;nan;100687.44;10431816;28;20060;-81
2022/05/19 07:24:35;;;;;;;4.75;2.80;;;;;;;24.32;nan;100690.50;10398571;28;20033;-80
2022/05/19 07:29:39;;;;;;;2.95;2.53;;;;;;;25.24;nan;100677.94;10421639;28;20037;-86
2022/05/19 07:34:43;;;;;;;5.05;2.80;;;;;;;24.97;nan;100672.44;10427445;28;20041;-83
2022/05/19 07:39:46;;;;;;;4.93;2.60;;;;;;;24.88;nan;100684.72;10391111;28;20053;-82
2022/05/19 07:44:49;;;;;;;6.32;2.17;;;;;;;25.29;nan;100680.06;10384077;28;20654;-83
2022/05/19 07:49:56;;;;;;;3.72;2.08;;;;;;;28.37;nan;100703.06;10382939;28;20507;-82
2022/05/19 07:55:00;;;;;;;3.38;3.08;;;;;;;28.03;nan;100698.03;10382873;28;20045;-82
2022/05/19 08:00:05;;;;;;;3.63;2.30;;;;;;;26.87;nan;100685.84;10381839;28;20050;-82
2022/05/19 08:05:16;;;;;;;4.00;2.28;;;;;;;26.26;nan;100698.34;10379893;28;20064;-83
2022/05/19 08:10:24;;;;;;;4.75;2.38;;;;;;;26.86;nan;100708.13;10382238;28;20049;-80
2022/05/19 08:15:36;;;;;;;6.28;1.90;;;;;;;27.28;nan;100709.22;10382777;28;20144;-80
2022/05/19 08:20:46;;;;;;;4.32;2.40;;;;;;;27.21;nan;100700.19;10379819;28;20076;-81
2022/05/19 08:25:50;;;;;;;4.07;2.38;;;;;;;26.90;nan;100704.69;10380423;28;20056;-85
2022/05/19 08:30:53;;;;;;;4.05;2.80;;;;;;;27.12;nan;100710.63;10378960;28;20680;-83
2022/05/19 08:35:58;;;;;;;2.80;2.42;;;;;;;27.07;nan;100696.72;10377899;28;20054;-83
2022/05/19 08:41:04;;;;;;;3.45;2.38;;;;;;;26.62;nan;100683.03;10384165;28;20124;-84
2022/05/19 08:46:08;;;;;;;3.58;2.20;;;;;;;26.23;nan;100685.00;10383923;28;20520;-78
2022/05/19 08:51:14;;;;;;;4.32;2.33;;;;;;;26.52;nan;100675.31;10389337;28;20048;-80
2022/05/19 08:56:24;;;;;;;2.58;2.30;;;;;;;26.45;nan;100665.38;10380808;28;20139;-82
2022/05/19 09:01:39;;;;;;;7.05;2.55;;;;;;;26.74;nan;100663.88;10381300;28;20041;-82
2022/05/19 09:12:20;;;;;;;5.75;2.47;;;;;;;26.73;nan;100663.03;10379100;28;20049;-85
2022/05/19 09:17:29;;;;;;;4.57;2.50;;;;;;;27.12;nan;100660.16;10379187;28;20053;-78
2022/05/19 09:22:34;;;;;;;3.35;2.40;;;;;;;27.85;nan;100662.13;10380925;28;20689;-78
2022/05/19 09:27:40;;;;;;;3.03;2.05;;;;;;;28.03;nan;100664.88;10378258;28;20057;-82
2022/05/19 09:32:53;;;;;;;5.25;2.40;;;;;;;27.84;nan;100646.66;10380356;28;20050;-84
2022/05/19 09:38:12;;;;;;;3.13;2.47;;;;;;;27.43;nan;100642.69;10386838;28;20057;-81
2022/05/19 09:43:19;;;;;;;2.45;2.25;;;;;;;27.36;nan;100639.97;10386671;28;20533;-81
2022/05/19 09:48:27;;;;;;;5.35;2.47;;;;;;;27.92;nan;100626.13;10380830;28;20156;-84
2022/05/19 09:53:40;;;;;;;3.70;2.22;;;;;;;28.46;nan;100605.78;10375308;28;20126;-84
2022/05/19 09:58:47;;;;;;;3.70;2.13;;;;;;;28.93;nan;100599.47;10383932;28;20196;-84
2022/05/19 10:03:55;;;;;;;2.30;2.10;;;;;;;29.34;nan;100595.72;10385694;28;20139;-82
2022/05/19 10:09:05;;;;;;;2.83;2.53;;;;;;;29.68;nan;100593.16;10380136;28;20378;-83
2022/05/19 10:14:15;;;;;;;5.50;2.20;;;;;;;29.40;nan;100579.22;10391843;28;20053;-83
2022/05/19 10:19:35;;;;;;;2.97;2.22;;;;;;;29.29;nan;100569.88;10392749;28;20077;-84
2022/05/19 10:25:03;;;;;;;4.05;2.30;;;;;;;30.34;nan;100567.78;10390819;28;20057;-84
2022/05/19 10:35:46;;;;;;;2.30;2.10;;;;;;;29.97;nan;100566.25;10376727;28;20183;-80
2022/05/19 10:41:02;;;;;;;3.25;2.42;;;;;;;30.12;nan;100562.94;10393433;28;20467;-81
2022/05/19 10:46:08;;;;;;;2.95;2.05;;;;;;;30.72;nan;100555.06;10387754;28;20303;-77
2022/05/19 10:51:15;;;;;;;2.25;2.00;;;;;;;29.40;nan;100552.41;10377687;28;20437;-76
2022/05/19 10:56:36;;;;;;;3.25;2.20;;;;;;;29.56;nan;100545.25;10378094;28;20105;-78
2022/05/19 11:01:48;;;;;;;3.03;2.20;;;;;;;30.50;nan;100533.69;10384585;28;20116;-80
2022/05/19 11:07:01;;;;;;;2.92;1.92;;;;;;;30.39;nan;100534.59;10387666;28;20072;-79
2022/05/19 11:12:15;;;;;;;2.90;2.15;;;;;;;30.30;nan;100519.50;10396634;28;20064;-77
2022/05/19 11:17:32;;;;;;;1.92;1.83;;;;;;;30.16;nan;100514.28;10359527;28;20112;-76
2022/05/19 11:22:39;;;;;;;3.05;2.15;;;;;;;30.60;nan;100488.63;10376986;28;20045;-76
2022/05/19 11:27:49;;;;;;;3.35;2.70;;;;;;;30.68;nan;100488.22;10377414;28;20144;-76
2022/05/19 11:32:57;;;;;;;6.55;2.10;;;;;;;31.52;nan;100462.94;10383579;28;20072;-78
2022/05/19 11:38:06;;;;;;;7.75;2.20;;;;;;;31.10;nan;100471.88;10389619;28;20050;-77
2022/05/19 11:43:18;;;;;;;3.58;2.00;;;;;;;31.12;nan;100457.72;10390693;28;20051;-78
2022/05/19 11:59:36;;;;;;;3.88;2.00;;;;;;;31.25;nan;100440.72;10379712;28;20049;-83
2022/05/19 12:04:41;;;;;;;2.63;1.88;;;;;;;31.72;nan;100428.97;10383361;28;20049;-78
2022/05/19 12:09:48;;;;;;;8.52;2.40;;;;;;;31.40;nan;100436.41;10383258;28;20138;-82
2022/05/19 12:15:17;;;;;;;3.22;1.77;;;;;;;32.33;nan;100427.78;10383608;28;20068;-81
2022/05/19 12:20:50;;;;;;;3.00;1.95;;;;;;;32.00;nan;100427.81;10383770;28;20049;-83
2022/05/19 12:25:58;;;;;;;2.60;1.70;;;;;;;32.02;nan;100422.00;10390873;28;20776;-83
2022/05/19 12:36:35;;;;;;;3.38;1.98;;;;;;;32.86;nan;100407.25;10396528;28;20080;-80
2022/05/19 12:41:42;;;;;;;2.65;2.00;;;;;;;33.13;nan;100400.63;10385042;28;20168;-81
2022/05/19 12:46:47;;;;;;;1.77;1.67;;;;;;;32.92;nan;100393.34;10387206;28;20059;-81
2022/05/19 12:51:54;;;;;;;4.40;2.20;;;;;;;33.03;nan;100392.25;10397265;28;20091;-79
2022/05/19 12:57:29;;;;;;;2.45;2.00;;;;;;;33.49;nan;100382.06;10396373;28;20136;-83
2022/05/19 13:02:39;;;;;;;2.25;1.60;;;;;;;33.42;nan;100384.28;10388194;28;20048;-80
2022/05/19 13:07:47;;;;;;;3.17;1.80;;;;;;;34.62;nan;100385.56;10388222;28;20049;-79
2022/05/19 13:13:02;;;;;;;1.73;1.63;;;;;;;34.33;nan;100390.09;10401780;28;20081;-80
2022/05/19 13:18:10;;;;;;;3.53;2.50;;;;;;;33.20;nan;100392.06;10380785;28;20046;-82
2022/05/19 13:23:23;;;;;;;5.28;2.03;;;;;;;31.68;nan;100390.91;10372433;28;20053;-81
2022/05/19 13:33:51;;;;;;;3.72;2.10;;;;;;;32.71;nan;100359.91;10381669;28;20110;-83
2022/05/19 13:39:07;;;;;;;7.22;2.25;;;;;;;32.51;nan;100368.13;10386181;28;20072;-83
2022/05/19 13:44:12;;;;;;;4.05;2.15;;;;;;;33.23;nan;100356.16;10389121;28;20068;-82
2022/05/19 13:49:21;;;;;;;2.45;2.00;;;;;;;33.11;nan;100355.56;10388236;28;20074;-83
2022/05/19 13:54:33;;;;;;;3.83;2.00;;;;;;;32.52;nan;100355.91;10380461;28;20046;-81
2022/05/19 13:59:36;;;;;;;;;;;;;;;30.66;nan;100377.63;10383180;28;21261;-82
2022/05/19 14:04:43;;;;;;;4.95;2.80;;;;;;;29.54;nan;100368.41;10386225;28;19960;-79
2022/05/19 14:09:56;;;;;;;3.65;1.98;;;;;;;29.35;nan;100369.75;10341643;28;20076;-78
2022/05/19 14:15:02;;;;;;;5.55;2.20;;;;;;;29.16;nan;100377.44;10318692;28;20414;-78
2022/05/19 14:20:10;;;;;;;5.03;2.00;;;;;;;29.23;nan;100380.03;10343048;28;20054;-78
2022/05/19 14:25:14;;;;;;;3.65;2.30;;;;;;;29.40;nan;100385.56;10343427;28;20561;-78
2022/05/19 14:30:19;;;;;;;4.93;2.33;;;;;;;28.98;nan;100397.78;10389912;28;20045;-79
2022/05/19 14:35:27;;;;;;;4.85;2.33;;;;;;;27.90;nan;100515.97;10382679;28;20060;-77
2022/05/19 14:46:13;;;;;;;16.60;2.65;;;;;;;21.62;nan;100660.53;10404028;28;20053;-79
2022/05/19 14:51:23;;;;;;;6.22;1.40;;;;;;;16.32;nan;100670.03;10382960;28;20112;-77
2022/05/19 14:56:35;;;;;;;3.45;1.50;;;;;;;15.89;nan;100684.28;10375152;28;20050;-76
2022/05/19 15:01:38;;;;;;;15.43;2.60;;;;;;;15.96;nan;100703.50;10376256;28;20049;-76
2022/05/19 15:06:42;;;;;;;16.25;3.60;;;;;;;15.26;nan;100688.53;10373987;28;20053;-74
2022/05/19 15:11:45;;;;;;;7.38;2.80;;;;;;;15.81;nan;100663.38;10373831;28;20091;-75
2022/05/19 15:16:48;;;;;;;6.20;2.58;;;;;;;16.19;nan;100647.00;10369232;28;20045;-76
2022/05/19 15:21:53;;;;;;;6.45;1.58;;;;;;;16.88;nan;100659.81;10376534;28;20502;-75
2022/05/19 15:26:59;;;;;;;4.43;1.42;;;;;;;17.04;nan;100650.94;10369850;28;20053;-77
2022/05/19 15:32:03;;;;;;;2.53;1.13;;;;;;;16.41;nan;100681.81;10370157;28;20625;-76
2022/05/19 15:37:07;;;;;;;8.35;1.35;;;;;;;16.94;nan;100693.59;10367997;28;20056;-76
2022/05/19 15:42:10;;;;;;;2.20;1.60;;;;;;;16.89;nan;100707.63;10370621;28;20060;-76
2022/05/19 15:47:17;;;;;;;7.47;2.05;;;;;;;17.33;nan;100682.34;10374270;28;20088;-77
2022/05/19 15:52:22;;;;;;;10.15;1.50;;;;;;;17.67;nan;100666.06;10374761;28;20278;-76
2022/05/19 15:57:24;;;;;;;6.40;1.40;;;;;;;17.75;nan;100676.09;10374335;28;20049;-78
2022/05/19 16:02:33;;;;;;;2.67;1.77;;;;;;;17.76;nan;100665.06;10372149;28;20041;-78
2022/05/19 16:07:42;;;;;;;5.05;1.60;;;;;;;17.49;nan;100696.00;10367190;28;20054;-78
2022/05/19 16:12:46;;;;;;;6.65;1.42;;;;;;;17.48;nan;100687.00;10372885;28;20499;-78
2022/05/19 16:17:49;;;;;;;7.38;2.05;;;;;;;17.76;nan;100677.78;10369765;28;20065;-79
2022/05/19 16:22:56;;;;;;;5.72;2.10;;;;;;;17.75;nan;100655.22;10372451;28;20608;-77
2022/05/19 16:28:00;;;;;;;3.33;1.85;;;;;;;17.42;nan;100636.06;10371937;28;20049;-78
2022/05/19 16:33:04;;;;;;;9.13;2.20;;;;;;;17.33;nan;100617.19;10374503;28;20053;-78
2022/05/19 16:38:10;;;;;;;7.45;2.25;;;;;;;17.25;nan;100605.28;10373741;28;20054;-79
2022/05/19 16:43:13;;;;;;;5.68;2.45;;;;;;;17.16;nan;100603.53;10374168;28;20084;-80
2022/05/19 16:48:17;;;;;;;8.27;2.30;;;;;;;16.97;nan;100607.28;10384280;28;20041;-79
2022/05/19 16:53:22;;;;;;;5.60;2.15;;;;;;;17.04;nan;100604.81;10386344;28;20044;-78
2022/05/19 16:58:27;;;;;;;6.95;2.53;;;;;;;17.14;nan;100600.16;10386627;28;20105;-78
2022/05/19 17:03:32;;;;;;;3.97;2.05;;;;;;;17.53;nan;100590.63;10392311;28;20045;-80
2022/05/19 17:08:40;;;;;;;4.97;2.83;;;;;;;17.28;nan;100604.13;10384524;28;20045;-79
2022/05/19 17:13:43;;;;;;;11.48;2.80;;;;;;;17.15;nan;100630.84;10381387;28;20060;-78
2022/05/19 17:18:46;;;;;;;4.25;3.22;;;;;;;17.24;nan;100632.59;10389069;28;20049;-79
2022/05/19 17:23:50;;;;;;;6.55;2.55;;;;;;;17.26;nan;100644.13;10382534;28;20041;-80
2022/05/19 17:28:55;;;;;;;7.57;3.00;;;;;;;17.24;nan;100646.16;10392324;28;20080;-80
2022/05/19 17:33:58;;;;;;;5.68;2.58;;;;;;;17.40;nan;100637.25;10392462;28;20049;-78
2022/05/19 17:39:02;;;;;;;5.15;2.72;;;;;;;17.48;nan;100632.69;10389097;28;20049;-80
2022/05/19 17:44:06;;;;;;;5.43;2.85;;;;;;;17.47;nan;100633.72;10390675;28;20045;-79
2022/05/19 17:49:09;;;;;;;6.10;3.03;;;;;;;17.39;nan;100643.72;10390234;28;20045;-80
2022/05/19 17:54:14;;;;;;;5.38;3.42;;;;;;;17.30;nan;100660.94;10383076;28;20147;-80
2022/05/19 17:59:17;;;;;;;8.65;3.83;;;;;;;17.18;nan;100673.94;10389580;28;20050;-81
2022/05/19 18:04:20;;;;;;;14.18;4.15;;;;;;;17.29;nan;100679.09;10387697;28;20055;-79
2022/05/19 18:09:24;;;;;;;3.33;2.85;;;;;;;16.84;nan;100682.88;10379339;28;20506;-78
2022/05/19 18:19:47;;;;;;;8.18;3.85;;;;;;;16.92;nan;100684.75;10384748;28;20128;-79
2022/05/19 18:24:53;;;;;;;5.47;3.92;;;;;;;16.95;nan;100687.16;10391475;28;20199;-81
2022/05/19 18:29:57;;;;;;;6.45;3.80;;;;;;;17.15;nan;100687.84;10389340;28;20543;-81
2022/05/19 18:35:00;;;;;;;7.50;4.65;;;;;;;17.43;nan;100683.94;10383509;28;20068;-80
2022/05/19 18:40:05;;;;;;;7.13;3.88;;;;;;;17.33;nan;100683.19;10390367;28;20128;-79
2022/05/19 18:45:09;;;;;;;8.40;3.72;;;;;;;17.34;nan;100694.94;10392458;28;20058;-81
2022/05/19 18:50:12;;;;;;;4.55;3.00;;;;;;;17.09;nan;100692.03;10386403;28;20060;-81
2022/05/19 18:55:16;;;;;;;3.50;3.20;;;;;;;17.22;nan;100687.06;10389957;28;20045;-80
2022/05/19 19:00:20;;;;;;;6.18;3.63;;;;;;;17.04;nan;100694.34;10390965;28;20151;-81
2022/05/19 19:05:22;;;;;;;3.70;3.28;;;;;;;17.19;nan;100691.94;10387080;28;20127;-80
2022/05/19 19:10:27;;;;;;;5.43;3.40;;;;;;;17.11;nan;100684.53;10385102;28;20912;-79
2022/05/19 19:15:30;;;;;;;8.27;4.05;;;;;;;17.09;nan;100680.31;10390646;28;20061;-78
2022/05/19 19:20:33;;;;;;;5.22;3.55;;;;;;;16.94;nan;100688.16;10395626;28;20268;-79
2022/05/19 19:25:37;;;;;;;9.65;3.92;;;;;;;17.12;nan;100685.44;10387110;28;20041;-80
2022/05/19 19:30:40;;;;;;;7.90;4.45;;;;;;;17.00;nan;100709.25;10386329;28;20060;-79
2022/05/19 19:35:44;;;;;;;8.43;5.15;;;;;;;17.03;nan;100717.94;10383950;28;20049;-80
2022/05/19 19:40:48;;;;;;;6.35;5.53;;;;;;;17.17;nan;100724.69;10404670;28;20132;-79
2022/05/19 19:45:51;;;;;;;8.43;5.93;;;;;;;16.93;nan;100729.91;10384422;28;20354;-80
2022/05/19 19:56:16;;;;;;;11.68;7.05;;;;;;;16.71;nan;100761.06;10386875;28;20091;-81
2022/05/19 20:01:19;;;;;;;16.80;7.30;;;;;;;16.84;nan;100779.66;10391498;28;20073;-81
2022/05/19 20:06:22;;;;;;;12.90;7.45;;;;;;;16.80;nan;100774.53;10397518;28;20055;-79
2022/05/19 20:11:26;;;;;;;12.30;7.80;;;;;;;16.76;nan;100788.59;10386159;28;20053;-82
2022/05/19 20:16:29;;;;;;;17.80;8.00;;;;;;;16.86;nan;100792.06;10381254;28;20053;-80
2022/05/19 20:21:33;;;;;;;15.82;8.82;;;;;;;16.85;nan;100792.22;10380310;28;20175;-81
2022/05/19 20:26:38;;;;;;;10.10;8.75;;;;;;;16.93;nan;100789.59;10379106;28;20507;-81
2022/05/19 20:31:41;;;;;;;13.77;9.52;;;;;;;16.92;nan;100794.16;10374420;28;20050;-81
2022/05/19 20:36:44;;;;;;;16.92;9.15;;;;;;;16.80;nan;100806.25;10382211;28;20060;-82
2022/05/19 20:41:48;;;;;;;14.50;10.18;;;;;;;16.87;nan;100801.06;10379203;28;20067;-82
2022/05/19 20:46:52;;;;;;;19.10;12.77;;;;;;;16.89;nan;100801.75;10377744;28;20060;-79
2022/05/19 20:51:55;;;;;;;15.88;11.65;;;;;;;16.89;nan;100807.19;10379608;28;20053;-80
2022/05/19 20:56:59;;;;;;;19.30;12.45;;;;;;;16.85;nan;100801.22;10379665;28;20079;-82
2022/05/19 21:02:02;;;;;;;13.80;12.30;;;;;;;16.73;nan;100814.16;10379124;28;20459;-82
2022/05/19 21:07:05;;;;;;;18.42;13.63;;;;;;;16.78;nan;100813.69;10372609;28;20049;-82
2022/05/19 21:12:11;;;;;;;17.00;13.43;;;;;;;16.85;nan;100827.50;10378296;28;20279;-82
2022/05/19 21:17:14;;;;;;;21.13;13.93;;;;;;;16.79;nan;100832.53;10375579;28;20095;-81
2022/05/19 21:22:17;;;;;;;25.77;15.02;;;;;;;16.86;nan;100838.19;10377359;28;20687;-81
2022/05/19 21:27:21;;;;;;;21.75;14.40;;;;;;;16.88;nan;100830.75;10371008;28;20057;-82
2022/05/19 21:32:24;;;;;;;21.23;16.77;;;;;;;16.86;nan;100837.34;10377257;28;20045;-82
2022/05/19 21:37:28;;;;;;;21.13;17.77;;;;;;;16.89;nan;100837.88;10376372;28;20065;-81
2022/05/19 21:42:33;;;;;;;28.85;19.45;;;;;;;16.78;nan;100854.38;10376899;28;20102;-81
2022/05/19 21:47:36;;;;;;;25.23;17.92;;;;;;;16.73;nan;100859.41;10377586;28;20068;-82
2022/05/19 21:58:02;;;;;;;23.00;19.23;;;;;;;16.99;nan;100864.94;10376539;28;20037;-82
2022/05/19 22:03:08;;;;;;;28.75;21.67;;;;;;;17.01;nan;100861.06;10387619;28;20095;-81
2022/05/19 22:08:13;;;;;;;25.85;20.30;;;;;;;17.11;nan;100869.13;10366302;28;20073;-81
2022/05/19 22:13:17;;;;;;;23.23;19.60;;;;;;;17.19;nan;100874.66;10382581;28;20054;-81
2022/05/19 22:18:20;;;;;;;27.20;20.38;;;;;;;17.14;nan;100882.44;10366410;28;20109;-80
2022/05/19 22:23:23;;;;;;;26.95;21.55;;;;;;;16.77;nan;100896.94;10384402;28;20049;-82
2022/05/19 22:28:29;;;;;;;29.05;22.80;;;;;;;16.59;nan;100902.34;10383953;28;20521;-81
2022/05/19 22:33:32;;;;;;;29.00;23.10;;;;;;;16.72;nan;100904.66;10383673;28;20544;-80
2022/05/19 22:38:36;;;;;;;33.85;26.70;;;;;;;16.79;nan;100913.06;10385616;28;20049;-81
2022/05/19 22:43:40;;;;;;;33.60;26.33;;;;;;;16.95;nan;100898.81;10383214;28;20077;-81
2022/05/19 22:48:44;;;;;;;30.98;25.17;;;;;;;16.59;nan;100907.75;10383790;28;20045;-82
2022/05/19 22:53:48;;;;;;;33.42;26.92;;;;;;;16.76;nan;100902.53;10382762;28;21142;-80
2022/05/19 22:58:52;;;;;;;30.05;26.85;;;;;;;16.81;nan;100908.31;10381939;28;20075;-81
2022/05/19 23:03:55;;;;;;;34.50;27.88;;;;;;;16.55;nan;100909.06;10381544;28;20050;-81
2022/05/19 23:08:58;;;;;;;30.98;27.60;;;;;;;16.48;nan;100912.50;10381473;28;20064;-81
2022/05/19 23:14:03;;;;;;;31.08;27.42;;;;;;;16.43;nan;100912.09;10381160;28;20072;-81
2022/05/19 23:19:06;;;;;;;33.35;25.00;;;;;;;16.15;nan;100925.59;10382364;28;20106;-81
2022/05/19 23:24:10;;;;;;;37.75;26.33;;;;;;;16.45;nan;100918.25;10382700;28;20118;-81
2022/05/19 23:29:14;;;;;;;38.47;28.08;;;;;;;16.29;nan;100908.91;10377466;28;20069;-81
2022/05/19 23:34:17;;;;;;;30.67;25.15;;;;;;;16.43;nan;100929.25;10381781;28;20102;-82
2022/05/19 23:39:20;;;;;;;30.40;25.23;;;;;;;16.73;nan;100924.50;10381028;28;20166;-81
2022/05/19 23:44:24;;;;;;;27.45;22.88;;;;;;;16.30;nan;100918.72;10379887;28;21323;-82
2022/05/19 23:49:27;;;;;;;30.45;23.77;;;;;;;16.29;nan;100922.47;10379419;28;20506;-82
2022/05/19 23:54:30;;;;;;;29.77;24.63;;;;;;;16.22;nan;100920.44;10377790;28;20049;-82
2022/05/19 23:59:34;;;;;;;31.27;22.13;;;;;;;16.28;nan;100934.28;10380853;28;20064;-80
